Terminal Aerodrome Forecast
Issued by NWS Lake Charles, LA

Home | Current Version | Previous Version | Text Only | Print | Product List | Glossary On
Versions: 1 2 3 4 5 6 7 8 9 10 11 12 13
000
FTUS44 KLCH 292300
TAFARA
TAF
KARA 292330Z 3000/3024 23009KT P6SM SCT250
     FM300100 VRB05KT P6SM SCT250
      TEMPO 3003/3007 3SM BR
     FM300700 01011KT P6SM SCT050 SCT250
     FM301400 04014KT P6SM SCT250=

USA.gov is the U.S. government's official web portal to all federal, state and local government web resources and services.